createdAt,value
2022-09-07T00:01:35.588Z,55.50
2022-09-07T00:04:03.739Z,55.14
2022-09-07T00:06:31.236Z,55.03
2022-09-07T00:08:58.634Z,55.45
2022-09-07T00:11:26.226Z,55.62
2022-09-07T00:13:53.567Z,55.66
2022-09-07T00:16:25.187Z,55.35
2022-09-07T00:18:59.612Z,55.65
2022-09-07T00:21:27.035Z,55.34
2022-09-07T00:23:54.819Z,55.23
2022-09-07T00:26:23.164Z,55.37
2022-09-07T00:28:50.958Z,55.47
2022-09-07T00:31:19.517Z,55.35
2022-09-07T00:33:48.257Z,55.23
2022-09-07T00:36:18.836Z,55.21
2022-09-07T00:38:46.593Z,54.84
2022-09-07T00:41:14.088Z,55.47
2022-09-07T00:43:43.022Z,55.35
2022-09-07T00:48:39.310Z,56.25
2022-09-07T00:51:07.340Z,56.22
2022-09-07T00:53:36.798Z,56.26
2022-09-07T00:56:04.106Z,56.71
2022-09-07T00:58:31.518Z,57.10
2022-09-07T01:00:59.126Z,56.79
2022-09-07T01:03:27.663Z,56.84
2022-09-07T01:05:56.938Z,56.38
2022-09-07T01:08:24.690Z,56.40
2022-09-07T01:10:52.032Z,56.53
2022-09-07T01:13:19.323Z,55.90
2022-09-07T01:15:47.180Z,55.90
2022-09-07T01:18:33.119Z,56.16
2022-09-07T01:21:01.114Z,56.43
2022-09-07T01:23:43.761Z,55.97
2022-09-07T01:26:14.248Z,55.91
2022-09-07T01:28:42.705Z,55.80
2022-09-07T01:31:40.698Z,55.69
2022-09-07T01:34:11.293Z,55.75
2022-09-07T01:36:57.291Z,55.81
2022-09-07T01:39:25.439Z,55.09
2022-09-07T01:41:54.530Z,55.30
2022-09-07T01:44:25.467Z,54.58
2022-09-07T01:46:53.020Z,54.74
2022-09-07T01:49:25.021Z,54.76
2022-09-07T01:51:57.204Z,54.75
2022-09-07T01:54:29.865Z,54.87
2022-09-07T01:56:58.000Z,54.82
2022-09-07T01:59:29.490Z,54.80
2022-09-07T02:02:04.518Z,54.81
2022-09-07T02:04:35.145Z,54.81
2022-09-07T02:07:13.278Z,55.02
2022-09-07T02:09:51.220Z,54.87
2022-09-07T02:12:21.110Z,54.95
2022-09-07T02:14:52.548Z,55.24
2022-09-07T02:17:25.798Z,54.87
2022-09-07T02:19:55.062Z,54.67
2022-09-07T02:22:27.467Z,54.73
2022-09-07T02:24:56.263Z,54.94
2022-09-07T02:27:32.144Z,55.01
2022-09-07T02:29:59.818Z,55.81
2022-09-07T02:32:27.149Z,55.49
2022-09-07T02:34:54.392Z,55.44
2022-09-07T02:37:21.945Z,54.99
2022-09-07T02:39:49.479Z,55.30
2022-09-07T02:42:16.824Z,55.16
2022-09-07T02:44:46.583Z,54.83
2022-09-07T02:47:23.130Z,55.25
2022-09-07T02:49:53.468Z,55.00
2022-09-07T02:52:29.814Z,54.91
2022-09-07T02:54:57.317Z,55.12
2022-09-07T02:57:30.447Z,55.57
2022-09-07T03:00:00.785Z,55.78
2022-09-07T03:02:31.197Z,55.56
2022-09-07T03:05:03.826Z,55.93
2022-09-07T03:07:36.998Z,56.06
2022-09-07T03:10:06.766Z,56.09
2022-09-07T03:12:47.258Z,56.09
2022-09-07T03:15:16.190Z,56.53
2022-09-07T03:17:43.502Z,56.03
2022-09-07T03:20:10.864Z,56.14
2022-09-07T03:22:38.474Z,55.88
2022-09-07T03:25:06.033Z,56.00
2022-09-07T03:27:33.427Z,56.10
2022-09-07T03:30:00.940Z,56.19
2022-09-07T03:32:32.273Z,56.17
2022-09-07T03:34:59.915Z,55.99
2022-09-07T03:37:27.575Z,55.91
2022-09-07T03:39:54.971Z,55.94
2022-09-07T03:42:22.601Z,55.64
2022-09-07T03:44:50.308Z,55.46
2022-09-07T03:47:17.687Z,55.54
2022-09-07T03:49:44.992Z,55.88
2022-09-07T03:52:12.636Z,55.85
2022-09-07T03:54:40.140Z,55.64
2022-09-07T03:57:07.488Z,55.92
2022-09-07T03:59:35.302Z,55.91
2022-09-07T04:02:02.573Z,56.38
2022-09-07T04:04:30.196Z,56.44
2022-09-07T04:06:57.472Z,56.44
2022-09-07T04:09:24.917Z,56.41
2022-09-07T04:11:52.436Z,56.58
2022-09-07T04:14:19.811Z,56.70
2022-09-07T04:16:47.375Z,56.76
2022-09-07T04:19:15.008Z,56.27
2022-09-07T04:21:44.332Z,56.49
2022-09-07T04:24:11.641Z,56.54
2022-09-07T04:26:39.181Z,56.61
2022-09-07T04:29:06.942Z,56.64
2022-09-07T04:31:35.101Z,56.65
2022-09-07T04:34:03.126Z,56.95
2022-09-07T04:36:30.409Z,56.57
2022-09-07T04:39:01.428Z,56.62
2022-09-07T04:41:29.642Z,57.02
2022-09-07T04:43:57.937Z,57.24
2022-09-07T04:46:26.494Z,57.04
2022-09-07T04:48:55.175Z,56.87
2022-09-07T04:51:23.257Z,57.30
2022-09-07T04:53:51.736Z,57.52
2022-09-07T04:56:19.752Z,57.55
2022-09-07T04:58:47.282Z,57.44
2022-09-07T05:01:15.655Z,57.41
2022-09-07T05:03:43.267Z,57.77
2022-09-07T05:06:10.543Z,57.52
2022-09-07T05:08:42.100Z,57.16
2022-09-07T05:11:10.323Z,56.49
2022-09-07T05:13:37.694Z,55.34
2022-09-07T05:16:12.058Z,54.73
2022-09-07T05:18:39.620Z,54.02
2022-09-07T05:21:07.891Z,53.21
2022-09-07T05:23:35.218Z,51.72
2022-09-07T05:26:03.797Z,50.74
2022-09-07T05:28:31.344Z,51.51
2022-09-07T05:31:21.031Z,51.40
2022-09-07T05:36:39.964Z,52.00
2022-09-07T05:39:07.793Z,52.41
2022-09-07T05:41:35.324Z,52.51
2022-09-07T05:46:51.381Z,53.14
2022-09-07T05:49:18.663Z,53.73
2022-09-07T05:51:45.913Z,54.03
2022-09-07T05:54:13.463Z,53.22
2022-09-07T05:56:40.821Z,53.18
2022-09-07T05:59:08.055Z,53.26
2022-09-07T06:01:35.975Z,53.64
2022-09-07T06:04:03.583Z,53.27
2022-09-07T06:06:31.148Z,53.78
2022-09-07T06:08:58.497Z,55.12
2022-09-07T06:11:27.348Z,56.11
2022-09-07T06:13:54.750Z,55.80
2022-09-07T06:16:22.842Z,56.73
2022-09-07T06:18:50.478Z,55.84
2022-09-07T06:21:18.897Z,56.21
2022-09-07T06:23:46.642Z,55.63
2022-09-07T06:26:14.547Z,55.07
2022-09-07T06:28:48.960Z,54.90
2022-09-07T06:31:21.576Z,54.53
2022-09-07T06:33:49.144Z,54.06
2022-09-07T06:36:17.971Z,55.42
2022-09-07T06:38:45.422Z,54.83
2022-09-07T06:44:18.843Z,55.30
2022-09-07T06:49:29.490Z,55.98
2022-09-07T06:51:56.751Z,55.55
2022-09-07T06:57:11.624Z,56.16
2022-09-07T06:59:38.932Z,56.48
2022-09-07T07:02:06.427Z,55.22
2022-09-07T07:04:39.589Z,54.67
2022-09-07T07:07:11.882Z,54.28
2022-09-07T07:09:39.768Z,54.41
2022-09-07T07:12:07.159Z,54.23
2022-09-07T07:14:37.415Z,54.54
2022-09-07T07:17:07.440Z,54.99
2022-09-07T07:19:34.814Z,57.12
2022-09-07T07:22:14.410Z,55.29
2022-09-07T07:24:49.698Z,54.89
2022-09-07T07:27:17.607Z,55.94
2022-09-07T07:29:45.862Z,54.30
2022-09-07T07:32:13.414Z,54.53
2022-09-07T07:34:40.633Z,55.50
2022-09-07T07:37:07.875Z,54.62
2022-09-07T07:42:22.665Z,53.89
2022-09-07T07:47:37.673Z,53.80
2022-09-07T07:55:44.003Z,52.54
2022-09-07T07:58:11.604Z,52.51
2022-09-07T08:00:53.726Z,52.61
2022-09-07T08:03:22.682Z,53.69
2022-09-07T08:05:49.888Z,52.77
2022-09-07T08:08:17.244Z,53.32
2022-09-07T08:10:46.123Z,52.57
2022-09-07T08:13:14.169Z,51.70
2022-09-07T08:15:44.595Z,53.05
2022-09-07T08:18:12.679Z,51.10
2022-09-07T08:20:40.269Z,52.11
2022-09-07T08:23:08.186Z,51.87
2022-09-07T08:25:35.863Z,53.88
2022-09-07T08:28:04.061Z,51.54
2022-09-07T08:30:31.323Z,51.16
2022-09-07T08:32:58.864Z,51.42
2022-09-07T08:35:26.044Z,51.06
2022-09-07T08:37:53.229Z,50.45
2022-09-07T08:40:20.859Z,51.27
2022-09-07T08:43:06.589Z,51.49
2022-09-07T08:45:35.158Z,50.59
2022-09-07T08:48:02.422Z,50.79
2022-09-07T08:50:31.493Z,49.05
2022-09-07T08:52:59.537Z,49.08
2022-09-07T08:55:27.880Z,48.14
2022-09-07T08:58:04.036Z,47.53
2022-09-07T09:00:31.632Z,47.01
2022-09-07T09:05:49.726Z,48.17
2022-09-07T09:08:20.552Z,47.59
2022-09-07T09:10:53.509Z,48.47
2022-09-07T09:13:20.841Z,47.56
2022-09-07T09:15:52.268Z,47.98
2022-09-07T09:18:31.894Z,47.94
2022-09-07T09:20:59.773Z,47.15
2022-09-07T09:23:28.166Z,46.62
2022-09-07T09:25:56.299Z,47.11
2022-09-07T09:28:25.561Z,46.04
2022-09-07T09:30:55.013Z,47.55
2022-09-07T09:33:28.955Z,46.87
2022-09-07T09:36:00.127Z,45.72
2022-09-07T09:38:34.802Z,46.91
2022-09-07T09:41:05.142Z,46.79
2022-09-07T09:43:37.295Z,46.10
2022-09-07T09:46:12.658Z,45.58
2022-09-07T09:48:41.653Z,45.72
2022-09-07T09:53:56.425Z,44.59
2022-09-07T09:56:35.696Z,44.15
2022-09-07T10:05:28.953Z,44.15
2022-09-07T10:07:56.917Z,44.15
2022-09-07T10:10:25.923Z,44.83
2022-09-07T10:12:54.203Z,43.66
2022-09-07T10:15:29.284Z,42.84
2022-09-07T10:17:57.015Z,41.96
2022-09-07T10:20:33.581Z,42.66
2022-09-07T10:23:01.172Z,43.62
2022-09-07T10:25:41.279Z,41.24
2022-09-07T10:28:10.029Z,41.77
2022-09-07T10:30:40.541Z,40.31
2022-09-07T10:33:16.909Z,40.03
2022-09-07T10:35:49.641Z,39.26
2022-09-07T10:38:18.019Z,40.91
2022-09-07T10:40:54.795Z,40.12
2022-09-07T10:43:28.112Z,39.45
2022-09-07T10:46:06.244Z,38.78
2022-09-07T10:48:33.504Z,37.82
2022-09-07T10:51:13.458Z,39.28
2022-09-07T10:54:29.877Z,38.29
2022-09-07T10:56:36.036Z,38.92
2022-09-07T10:59:06.393Z,37.99
2022-09-07T11:01:52.678Z,36.71
2022-09-07T11:04:20.254Z,36.07
2022-09-07T11:06:48.925Z,37.42
2022-09-07T11:09:23.562Z,36.16
2022-09-07T11:12:17.442Z,36.01
2022-09-07T11:14:45.696Z,37.69
2022-09-07T11:17:14.562Z,37.29
2022-09-07T11:19:44.705Z,38.11
2022-09-07T11:22:11.892Z,36.76
2022-09-07T11:25:29.015Z,37.11
2022-09-07T11:27:39.709Z,37.37
2022-09-07T11:30:13.421Z,37.63
2022-09-07T11:32:42.622Z,37.12
2022-09-07T11:35:22.171Z,38.01
2022-09-07T11:37:54.565Z,38.14
2022-09-07T11:40:27.441Z,38.14
2022-09-07T11:42:59.648Z,37.46
2022-09-07T11:45:31.696Z,37.38
2022-09-07T11:48:06.141Z,36.64
2022-09-07T11:50:35.175Z,37.52
2022-09-07T11:53:21.831Z,37.91
2022-09-07T11:55:50.613Z,37.30
2022-09-07T11:58:41.264Z,36.79
2022-09-07T12:01:14.968Z,37.06
2022-09-07T12:04:01.055Z,38.08
2022-09-07T12:06:34.117Z,37.23
2022-09-07T12:09:13.827Z,37.10
2022-09-07T12:11:54.602Z,38.07
2022-09-07T12:14:25.229Z,38.56
2022-09-07T12:17:11.486Z,38.88
2022-09-07T12:19:39.149Z,37.12
2022-09-07T12:22:17.296Z,36.79
2022-09-07T12:24:51.576Z,37.34
2022-09-07T12:27:21.690Z,39.00
2022-09-07T12:30:10.020Z,41.02
2022-09-07T12:32:54.982Z,40.08
2022-09-07T12:35:26.639Z,39.13
2022-09-07T12:37:54.436Z,38.50
2022-09-07T12:40:30.682Z,39.25
2022-09-07T12:43:13.534Z,39.92
2022-09-07T12:45:40.806Z,40.17
2022-09-07T12:48:12.211Z,39.14
2022-09-07T12:50:59.796Z,38.27
2022-09-07T12:53:36.605Z,39.17
2022-09-07T12:56:22.408Z,39.60
2022-09-07T12:58:51.849Z,39.54
2022-09-07T13:01:34.416Z,38.26
2022-09-07T13:04:12.677Z,39.48
2022-09-07T13:09:39.920Z,37.88
2022-09-07T13:15:29.316Z,38.44
2022-09-07T13:17:56.656Z,40.58
2022-09-07T13:20:30.115Z,39.69
2022-09-07T13:23:07.603Z,39.21
2022-09-07T13:25:38.203Z,38.83
2022-09-07T13:28:14.733Z,38.12
2022-09-07T13:30:48.371Z,36.91
2022-09-07T13:33:42.158Z,37.32
2022-09-07T13:36:25.734Z,36.95
2022-09-07T13:38:53.664Z,35.04
2022-09-07T13:41:26.193Z,34.69
2022-09-07T13:43:56.991Z,33.14
2022-09-07T13:46:40.607Z,33.44
2022-09-07T13:49:17.429Z,34.86
2022-09-07T13:51:47.785Z,35.20
2022-09-07T13:54:18.459Z,35.01
2022-09-07T13:56:49.051Z,34.69
2022-09-07T13:59:34.912Z,34.67
2022-09-07T14:02:02.598Z,34.75
2022-09-07T14:04:42.300Z,34.79
2022-09-07T14:07:13.777Z,33.97
2022-09-07T14:09:41.509Z,35.16
2022-09-07T14:12:15.655Z,35.68
2022-09-07T14:14:43.175Z,35.56
2022-09-07T14:17:16.837Z,35.33
2022-09-07T14:19:51.020Z,34.67
2022-09-07T14:22:22.494Z,34.62
2022-09-07T14:24:53.610Z,35.42
2022-09-07T14:27:25.641Z,35.37
2022-09-07T14:29:53.399Z,35.92
2022-09-07T14:32:22.682Z,36.21
2022-09-07T14:34:49.927Z,35.93
2022-09-07T14:37:17.895Z,36.55
2022-09-07T14:39:46.438Z,37.48
2022-09-07T14:42:15.205Z,37.51
2022-09-07T14:44:43.129Z,37.06
2022-09-07T14:47:21.530Z,37.25
2022-09-07T14:49:50.969Z,37.43
2022-09-07T14:52:42.387Z,37.46
2022-09-07T14:55:27.848Z,37.08
2022-09-07T14:58:13.688Z,37.18
2022-09-07T15:00:42.295Z,37.31
2022-09-07T15:03:29.530Z,37.37
2022-09-07T15:06:01.012Z,37.33
2022-09-07T15:08:40.597Z,37.59
2022-09-07T15:14:12.381Z,36.98
2022-09-07T15:16:41.334Z,37.43
2022-09-07T15:19:18.522Z,38.40
2022-09-07T15:21:46.008Z,38.17
2022-09-07T15:24:13.525Z,39.28
2022-09-07T15:27:04.330Z,37.69
2022-09-07T15:29:32.477Z,37.83
2022-09-07T15:32:04.277Z,37.77
2022-09-07T15:34:34.399Z,37.49
2022-09-07T15:37:03.717Z,37.41
2022-09-07T15:39:34.484Z,38.08
2022-09-07T15:42:59.445Z,38.18
2022-09-07T15:44:50.226Z,37.47
2022-09-07T15:50:06.326Z,36.98
2022-09-07T15:52:33.960Z,37.40
2022-09-07T15:55:01.199Z,37.32
2022-09-07T16:00:16.946Z,38.07
2022-09-07T16:05:31.841Z,38.41
2022-09-07T16:10:53.347Z,38.16
2022-09-07T16:13:24.126Z,38.14
2022-09-07T16:15:51.874Z,38.38
2022-09-07T16:18:19.243Z,38.63
2022-09-07T16:20:47.280Z,38.61
2022-09-07T16:23:16.532Z,38.57
2022-09-07T16:26:04.219Z,38.81
2022-09-07T16:28:31.894Z,38.86
2022-09-07T16:30:59.234Z,38.71
2022-09-07T16:33:34.390Z,38.86
2022-09-07T16:36:06.171Z,38.82
2022-09-07T16:38:50.131Z,39.11
2022-09-07T16:41:20.467Z,39.38
2022-09-07T16:43:48.100Z,39.48
2022-09-07T16:46:16.504Z,39.45
2022-09-07T16:48:44.292Z,39.55
2022-09-07T16:51:12.421Z,39.82
2022-09-07T16:53:39.863Z,39.94
2022-09-07T16:56:08.846Z,40.69
2022-09-07T16:58:37.970Z,40.69
2022-09-07T17:01:06.597Z,40.54
2022-09-07T17:03:34.550Z,40.53
2022-09-07T17:06:02.241Z,40.52
2022-09-07T17:08:29.717Z,40.53
2022-09-07T17:11:00.957Z,40.74
2022-09-07T17:13:28.410Z,40.73
2022-09-07T17:16:01.234Z,40.91
2022-09-07T17:21:16.646Z,41.02
2022-09-07T17:23:51.126Z,41.25
2022-09-07T17:26:23.260Z,41.38
2022-09-07T17:28:51.692Z,41.84
2022-09-07T17:34:08.767Z,42.79
2022-09-07T17:36:36.147Z,42.77
2022-09-07T17:39:19.636Z,42.99
2022-09-07T17:41:48.586Z,43.21
2022-09-07T17:44:15.980Z,43.87
2022-09-07T17:46:43.544Z,44.12
2022-09-07T17:49:14.160Z,44.38
2022-09-07T17:51:41.662Z,44.62
2022-09-07T17:54:11.425Z,44.94
2022-09-07T17:56:40.096Z,44.96
2022-09-07T18:01:56.343Z,45.23
2022-09-07T18:04:24.267Z,46.45
2022-09-07T18:06:51.778Z,46.42
2022-09-07T18:09:19.916Z,46.53
2022-09-07T18:11:49.359Z,47.02
2022-09-07T18:14:17.316Z,47.33
2022-09-07T18:16:46.295Z,47.73
2022-09-07T18:19:13.980Z,47.83
2022-09-07T18:21:42.589Z,47.79
2022-09-07T18:24:17.396Z,47.97
2022-09-07T18:26:49.988Z,48.00
2022-09-07T18:29:28.633Z,48.07
2022-09-07T18:31:57.695Z,48.38
2022-09-07T18:34:25.083Z,48.59
2022-09-07T18:36:52.495Z,48.86
2022-09-07T18:39:20.407Z,49.52
2022-09-07T18:41:47.865Z,49.25
2022-09-07T18:47:02.692Z,49.96
2022-09-07T18:49:30.484Z,50.54
2022-09-07T18:54:48.772Z,50.78
2022-09-07T18:57:17.343Z,50.67
2022-09-07T18:59:47.073Z,50.67
2022-09-07T19:02:14.790Z,50.51
2022-09-07T19:07:34.671Z,51.08
2022-09-07T19:10:06.407Z,50.62
2022-09-07T19:12:34.412Z,50.64
2022-09-07T19:15:01.713Z,50.82
2022-09-07T19:17:29.093Z,50.58
2022-09-07T19:19:56.769Z,50.42
2022-09-07T19:22:24.065Z,50.52
2022-09-07T19:24:56.478Z,50.56
2022-09-07T19:27:24.018Z,50.22
2022-09-07T19:29:51.248Z,50.34
2022-09-07T19:32:18.634Z,50.48
2022-09-07T19:34:47.417Z,50.59
2022-09-07T19:37:14.675Z,50.86
2022-09-07T19:39:41.957Z,50.74
2022-09-07T19:42:09.525Z,50.97
2022-09-07T19:44:36.807Z,50.89
2022-09-07T19:47:04.141Z,50.78
2022-09-07T19:49:31.902Z,50.91
2022-09-07T19:51:59.400Z,51.19
2022-09-07T19:54:26.796Z,51.43
2022-09-07T19:56:54.404Z,51.37
2022-09-07T19:59:21.696Z,51.35
2022-09-07T20:01:50.531Z,51.11
2022-09-07T20:04:23.390Z,50.88
2022-09-07T20:06:51.206Z,50.97
2022-09-07T20:09:19.147Z,51.20
2022-09-07T20:11:47.749Z,50.56
2022-09-07T20:14:15.526Z,50.95
2022-09-07T20:16:43.272Z,51.37
2022-09-07T20:19:11.115Z,51.06
2022-09-07T20:21:38.367Z,51.07
2022-09-07T20:24:05.967Z,50.97
2022-09-07T20:26:33.280Z,51.12
2022-09-07T20:31:48.089Z,51.09
2022-09-07T20:34:15.569Z,51.05
2022-09-07T20:36:42.863Z,50.94
2022-09-07T20:39:13.262Z,50.88
2022-09-07T20:41:40.523Z,50.93
2022-09-07T20:44:08.715Z,51.21
2022-09-07T20:46:36.498Z,50.94
2022-09-07T20:49:04.811Z,50.98
2022-09-07T20:51:32.155Z,51.12
2022-09-07T20:53:59.702Z,50.94
2022-09-07T20:56:27.712Z,51.22
2022-09-07T20:58:55.860Z,51.46
2022-09-07T21:01:23.627Z,51.10
2022-09-07T21:03:52.225Z,51.50
2022-09-07T21:06:19.924Z,51.81
2022-09-07T21:08:47.846Z,52.30
2022-09-07T21:11:16.294Z,52.21
2022-09-07T21:13:43.599Z,52.31
2022-09-07T21:16:11.868Z,52.48
2022-09-07T21:18:39.936Z,52.92
2022-09-07T21:21:22.402Z,53.02
2022-09-07T21:23:54.193Z,52.78
2022-09-07T21:26:21.492Z,52.78
2022-09-07T21:28:53.651Z,52.76
2022-09-07T21:31:21.191Z,52.75
2022-09-07T21:33:48.558Z,52.81
2022-09-07T21:36:15.790Z,52.82
2022-09-07T21:38:43.438Z,52.91
2022-09-07T21:41:14.314Z,53.13
2022-09-07T21:43:41.504Z,52.88
2022-09-07T21:46:10.415Z,53.00
2022-09-07T21:48:37.781Z,53.69
2022-09-07T21:51:05.141Z,53.11
2022-09-07T21:53:32.942Z,52.94
2022-09-07T21:56:01.132Z,52.72
2022-09-07T21:58:28.602Z,52.83
2022-09-07T22:00:57.033Z,52.68
2022-09-07T22:03:25.149Z,52.53
2022-09-07T22:05:52.535Z,52.54
2022-09-07T22:08:19.870Z,52.50
2022-09-07T22:10:47.481Z,52.51
2022-09-07T22:13:14.724Z,52.48
2022-09-07T22:15:42.033Z,52.43
2022-09-07T22:18:11.409Z,52.58
2022-09-07T22:20:38.747Z,52.78
2022-09-07T22:23:06.139Z,52.31
2022-09-07T22:25:33.655Z,51.97
2022-09-07T22:28:00.909Z,51.90
2022-09-07T22:30:28.166Z,52.08
2022-09-07T22:32:55.646Z,52.21
2022-09-07T22:35:23.672Z,52.19
2022-09-07T22:37:51.120Z,52.20
2022-09-07T22:40:18.743Z,52.56
2022-09-07T22:42:45.954Z,52.22
2022-09-07T22:45:13.189Z,52.18
2022-09-07T22:47:41.921Z,52.49
2022-09-07T22:50:10.059Z,52.39
2022-09-07T22:52:37.373Z,52.25
2022-09-07T22:55:05.071Z,52.34
2022-09-07T22:57:32.327Z,52.05
2022-09-07T22:59:59.554Z,51.97
2022-09-07T23:02:27.041Z,52.02
2022-09-07T23:04:54.385Z,52.15
2022-09-07T23:07:21.967Z,52.46
2022-09-07T23:09:49.448Z,52.37
2022-09-07T23:12:17.145Z,52.35
2022-09-07T23:14:44.349Z,52.72
2022-09-07T23:17:12.399Z,52.62
2022-09-07T23:19:39.654Z,53.11
2022-09-07T23:22:07.391Z,52.99
2022-09-07T23:24:35.274Z,52.39
2022-09-07T23:27:02.505Z,52.37
2022-09-07T23:29:29.766Z,52.20
2022-09-07T23:31:57.313Z,52.34
2022-09-07T23:34:24.524Z,52.12
2022-09-07T23:36:51.828Z,52.24
2022-09-07T23:39:19.307Z,52.08
2022-09-07T23:41:46.567Z,53.10
2022-09-07T23:44:14.038Z,52.62
2022-09-07T23:46:41.657Z,52.88
2022-09-07T23:49:08.860Z,52.63
2022-09-07T23:51:36.153Z,52.13
2022-09-07T23:54:03.714Z,51.99
2022-09-07T23:56:32.200Z,51.58
2022-09-07T23:58:59.434Z,52.29
